Αρχική σελίδα
METAR-TAF:

METAR-TAF

Αεροδρόμια :

Λουσάκα, Ζάμπια

γεωγραφικό πλάτος: 15-19-51S, γεωγραφικό μήκος: 028-27-09E, υψόμετρο: 1152 μ

Παρών καιρός

Η αναφορά έγινε 7 ώρες και 30 λεπτά πριν, στις 14:00 UTC
Άνεμος 7 kt από Α
Θερμοκρασία 23°C
Υγρασία 44%
Πίεση 1022 hPa
Ορατότητα 10 χλμ και άνω
Λίγα νέφη σε ύψος 4000 πόδια

METAR: FLKK 231400Z 10007KT 9999 FEW040 23/10 Q1022

Χρόνος: 23:30 (21:30 UTC)


TAF: λείπει

Μετεωρολογικές αναφορές και προγνώσεις για περισσότερα από 4000 αεροδρόμια (δελτία METAR και TAF).

Οι διαθέσιμοι σταθμοί απεικονίζονται στο χάρτη με κίτρινες και κόκκινες κουκκίδες.

Μετακινήστε το ποντίκι πάνω από τις κουκκίδες για να δείτε το όνομα του σταθμού.

Στη συνέχεια, κάντε κλικ για να δείτε τις μετεωρολογικές αναφορές και τις προγνώσεις καιρού.

Για να αλλάξετε το χάρτη: κάντε κλικ στα πράσινα κουμπιά με τον μαύρο σταυρό για να ζουμάρετε, στο πράσινο κουμπί με την παύλα για να αφαιρέσετε το ζουμ ή στα πράσινα βέλη για να αντιπαραβάλλετε χάρτες.


METAR-TAF: